sensor_id;sensor_type;location;lat;lon;timestamp;P1;durP1;ratioP1;P2;durP2;ratioP2
18796;SDS011;9526;52.612;13.300;2023-06-10T00:00:53;3.72;;;2.75;;
18796;SDS011;9526;52.612;13.300;2023-06-10T00:03:17;3.72;;;2.33;;
18796;SDS011;9526;52.612;13.300;2023-06-10T00:05:41;3.40;;;2.33;;
18796;SDS011;9526;52.612;13.300;2023-06-10T00:08:07;6.00;;;2.50;;
18796;SDS011;9526;52.612;13.300;2023-06-10T00:10:32;7.45;;;2.88;;
18796;SDS011;9526;52.612;13.300;2023-06-10T00:12:56;6.20;;;2.17;;
18796;SDS011;9526;52.612;13.300;2023-06-10T00:15:20;4.28;;;2.72;;
18796;SDS011;9526;52.612;13.300;2023-06-10T00:17:43;3.83;;;2.50;;
18796;SDS011;9526;52.612;13.300;2023-06-10T00:20:08;6.10;;;2.90;;
18796;SDS011;9526;52.612;13.300;2023-06-10T00:22:34;5.93;;;2.83;;
18796;SDS011;9526;52.612;13.300;2023-06-10T00:25:00;4.32;;;2.38;;
18796;SDS011;9526;52.612;13.300;2023-06-10T00:27:25;4.53;;;2.35;;
18796;SDS011;9526;52.612;13.300;2023-06-10T00:29:54;3.80;;;2.10;;
18796;SDS011;9526;52.612;13.300;2023-06-10T00:32:18;5.03;;;2.30;;
18796;SDS011;9526;52.612;13.300;2023-06-10T00:34:41;4.65;;;2.47;;
18796;SDS011;9526;52.612;13.300;2023-06-10T00:37:05;4.95;;;2.25;;
18796;SDS011;9526;52.612;13.300;2023-06-10T00:39:29;5.30;;;2.80;;
18796;SDS011;9526;52.612;13.300;2023-06-10T00:41:54;5.25;;;2.25;;
18796;SDS011;9526;52.612;13.300;2023-06-10T00:44:18;6.00;;;2.47;;
18796;SDS011;9526;52.612;13.300;2023-06-10T00:46:42;5.85;;;2.47;;
18796;SDS011;9526;52.612;13.300;2023-06-10T00:49:06;2.70;;;1.85;;
18796;SDS011;9526;52.612;13.300;2023-06-10T00:51:31;4.07;;;2.25;;
18796;SDS011;9526;52.612;13.300;2023-06-10T00:53:56;6.13;;;2.80;;
18796;SDS011;9526;52.612;13.300;2023-06-10T00:56:20;3.47;;;2.38;;
18796;SDS011;9526;52.612;13.300;2023-06-10T00:58:45;4.78;;;2.50;;
18796;SDS011;9526;52.612;13.300;2023-06-10T01:01:11;5.32;;;2.20;;
18796;SDS011;9526;52.612;13.300;2023-06-10T01:03:34;4.03;;;2.50;;
18796;SDS011;9526;52.612;13.300;2023-06-10T01:05:59;3.13;;;2.03;;
18796;SDS011;9526;52.612;13.300;2023-06-10T01:08:37;7.30;;;2.35;;
18796;SDS011;9526;52.612;13.300;2023-06-10T01:11:08;4.47;;;2.33;;
18796;SDS011;9526;52.612;13.300;2023-06-10T01:13:42;5.25;;;2.20;;
18796;SDS011;9526;52.612;13.300;2023-06-10T01:16:09;5.00;;;2.28;;
18796;SDS011;9526;52.612;13.300;2023-06-10T01:18:34;6.63;;;2.55;;
18796;SDS011;9526;52.612;13.300;2023-06-10T01:20:58;5.05;;;2.30;;
18796;SDS011;9526;52.612;13.300;2023-06-10T01:23:23;3.75;;;2.00;;
18796;SDS011;9526;52.612;13.300;2023-06-10T01:25:48;4.68;;;2.13;;
18796;SDS011;9526;52.612;13.300;2023-06-10T01:28:17;3.67;;;2.38;;
18796;SDS011;9526;52.612;13.300;2023-06-10T01:30:48;3.95;;;2.13;;
18796;SDS011;9526;52.612;13.300;2023-06-10T01:33:22;4.78;;;2.45;;
18796;SDS011;9526;52.612;13.300;2023-06-10T01:35:51;5.53;;;2.47;;
18796;SDS011;9526;52.612;13.300;2023-06-10T01:38:16;4.07;;;1.90;;
18796;SDS011;9526;52.612;13.300;2023-06-10T01:40:43;5.28;;;2.40;;
18796;SDS011;9526;52.612;13.300;2023-06-10T01:43:08;4.47;;;2.17;;
18796;SDS011;9526;52.612;13.300;2023-06-10T01:45:33;6.00;;;2.83;;
18796;SDS011;9526;52.612;13.300;2023-06-10T01:47:57;7.15;;;2.50;;
18796;SDS011;9526;52.612;13.300;2023-06-10T01:50:21;4.65;;;2.53;;
18796;SDS011;9526;52.612;13.300;2023-06-10T01:52:45;4.72;;;2.70;;
18796;SDS011;9526;52.612;13.300;2023-06-10T01:55:08;5.38;;;2.88;;
18796;SDS011;9526;52.612;13.300;2023-06-10T01:57:35;3.92;;;2.20;;
18796;SDS011;9526;52.612;13.300;2023-06-10T01:59:59;4.63;;;2.30;;
18796;SDS011;9526;52.612;13.300;2023-06-10T02:02:35;5.70;;;2.60;;
18796;SDS011;9526;52.612;13.300;2023-06-10T02:04:59;4.78;;;2.35;;
18796;SDS011;9526;52.612;13.300;2023-06-10T02:07:23;5.28;;;2.28;;
18796;SDS011;9526;52.612;13.300;2023-06-10T02:09:46;4.22;;;2.15;;
18796;SDS011;9526;52.612;13.300;2023-06-10T02:12:10;4.70;;;2.33;;
18796;SDS011;9526;52.612;13.300;2023-06-10T02:14:39;3.95;;;2.63;;
18796;SDS011;9526;52.612;13.300;2023-06-10T02:17:03;4.47;;;2.33;;
18796;SDS011;9526;52.612;13.300;2023-06-10T02:19:28;3.05;;;2.20;;
18796;SDS011;9526;52.612;13.300;2023-06-10T02:21:52;4.53;;;2.40;;
18796;SDS011;9526;52.612;13.300;2023-06-10T02:24:16;4.22;;;2.50;;
18796;SDS011;9526;52.612;13.300;2023-06-10T02:26:40;3.03;;;2.10;;
18796;SDS011;9526;52.612;13.300;2023-06-10T02:29:04;4.75;;;2.42;;
18796;SDS011;9526;52.612;13.300;2023-06-10T02:31:29;4.63;;;2.28;;
18796;SDS011;9526;52.612;13.300;2023-06-10T02:33:53;5.93;;;2.28;;
18796;SDS011;9526;52.612;13.300;2023-06-10T02:36:18;6.68;;;2.35;;
18796;SDS011;9526;52.612;13.300;2023-06-10T02:38:43;4.65;;;2.40;;
18796;SDS011;9526;52.612;13.300;2023-06-10T02:41:07;6.13;;;2.75;;
18796;SDS011;9526;52.612;13.300;2023-06-10T02:43:30;2.97;;;2.05;;
18796;SDS011;9526;52.612;13.300;2023-06-10T02:45:54;4.90;;;2.20;;
18796;SDS011;9526;52.612;13.300;2023-06-10T02:48:20;4.43;;;2.60;;
18796;SDS011;9526;52.612;13.300;2023-06-10T02:50:43;5.05;;;2.17;;
18796;SDS011;9526;52.612;13.300;2023-06-10T02:53:13;4.97;;;2.45;;
18796;SDS011;9526;52.612;13.300;2023-06-10T02:55:43;4.55;;;2.55;;
18796;SDS011;9526;52.612;13.300;2023-06-10T02:58:09;5.47;;;2.45;;
18796;SDS011;9526;52.612;13.300;2023-06-10T03:00:33;3.63;;;2.30;;
18796;SDS011;9526;52.612;13.300;2023-06-10T03:02:57;4.60;;;2.65;;
18796;SDS011;9526;52.612;13.300;2023-06-10T03:05:30;7.57;;;2.78;;
18796;SDS011;9526;52.612;13.300;2023-06-10T03:07:57;5.43;;;2.50;;
18796;SDS011;9526;52.612;13.300;2023-06-10T03:10:22;5.07;;;2.30;;
18796;SDS011;9526;52.612;13.300;2023-06-10T03:12:45;5.75;;;2.17;;
18796;SDS011;9526;52.612;13.300;2023-06-10T03:15:09;3.22;;;2.20;;
18796;SDS011;9526;52.612;13.300;2023-06-10T03:17:34;3.08;;;2.10;;
18796;SDS011;9526;52.612;13.300;2023-06-10T03:19:58;5.38;;;2.17;;
18796;SDS011;9526;52.612;13.300;2023-06-10T03:22:23;5.38;;;2.47;;
18796;SDS011;9526;52.612;13.300;2023-06-10T03:24:58;7.88;;;2.78;;
18796;SDS011;9526;52.612;13.300;2023-06-10T03:27:22;3.95;;;2.47;;
18796;SDS011;9526;52.612;13.300;2023-06-10T03:29:52;6.10;;;2.20;;
18796;SDS011;9526;52.612;13.300;2023-06-10T03:32:16;5.35;;;2.95;;
18796;SDS011;9526;52.612;13.300;2023-06-10T03:34:40;6.72;;;2.80;;
18796;SDS011;9526;52.612;13.300;2023-06-10T03:37:07;4.00;;;2.50;;
18796;SDS011;9526;52.612;13.300;2023-06-10T03:39:32;7.07;;;2.95;;
18796;SDS011;9526;52.612;13.300;2023-06-10T03:41:56;6.20;;;3.05;;
18796;SDS011;9526;52.612;13.300;2023-06-10T03:44:24;6.15;;;2.85;;
18796;SDS011;9526;52.612;13.300;2023-06-10T03:46:49;5.75;;;2.60;;
18796;SDS011;9526;52.612;13.300;2023-06-10T03:49:13;5.25;;;2.67;;
18796;SDS011;9526;52.612;13.300;2023-06-10T03:51:37;7.90;;;2.83;;
18796;SDS011;9526;52.612;13.300;2023-06-10T03:54:01;5.00;;;2.30;;
18796;SDS011;9526;52.612;13.300;2023-06-10T03:56:27;4.78;;;2.58;;
18796;SDS011;9526;52.612;13.300;2023-06-10T03:58:51;5.20;;;2.35;;
18796;SDS011;9526;52.612;13.300;2023-06-10T04:01:15;5.75;;;2.72;;
18796;SDS011;9526;52.612;13.300;2023-06-10T04:03:42;5.13;;;2.75;;
18796;SDS011;9526;52.612;13.300;2023-06-10T04:06:06;6.00;;;2.75;;
18796;SDS011;9526;52.612;13.300;2023-06-10T04:08:30;6.20;;;2.65;;
18796;SDS011;9526;52.612;13.300;2023-06-10T04:10:54;6.43;;;2.75;;
18796;SDS011;9526;52.612;13.300;2023-06-10T04:13:19;4.10;;;2.28;;
18796;SDS011;9526;52.612;13.300;2023-06-10T04:15:47;5.47;;;2.90;;
18796;SDS011;9526;52.612;13.300;2023-06-10T04:18:12;5.25;;;3.08;;
18796;SDS011;9526;52.612;13.300;2023-06-10T04:20:38;8.77;;;2.55;;
18796;SDS011;9526;52.612;13.300;2023-06-10T04:23:01;5.50;;;2.55;;
18796;SDS011;9526;52.612;13.300;2023-06-10T04:25:25;5.65;;;2.85;;
18796;SDS011;9526;52.612;13.300;2023-06-10T04:27:50;4.03;;;2.58;;
18796;SDS011;9526;52.612;13.300;2023-06-10T04:30:16;5.35;;;2.63;;
18796;SDS011;9526;52.612;13.300;2023-06-10T04:32:40;7.47;;;2.72;;
18796;SDS011;9526;52.612;13.300;2023-06-10T04:35:11;5.65;;;2.70;;
18796;SDS011;9526;52.612;13.300;2023-06-10T04:37:36;3.42;;;2.38;;
18796;SDS011;9526;52.612;13.300;2023-06-10T04:40:00;6.60;;;2.85;;
18796;SDS011;9526;52.612;13.300;2023-06-10T04:42:25;6.53;;;3.00;;
18796;SDS011;9526;52.612;13.300;2023-06-10T04:44:49;7.63;;;2.92;;
18796;SDS011;9526;52.612;13.300;2023-06-10T04:47:14;7.78;;;2.78;;
18796;SDS011;9526;52.612;13.300;2023-06-10T04:49:40;7.55;;;2.92;;
18796;SDS011;9526;52.612;13.300;2023-06-10T04:52:04;3.65;;;2.47;;
18796;SDS011;9526;52.612;13.300;2023-06-10T04:54:32;4.10;;;2.33;;
18796;SDS011;9526;52.612;13.300;2023-06-10T04:56:56;6.75;;;2.92;;
18796;SDS011;9526;52.612;13.300;2023-06-10T04:59:19;9.82;;;3.35;;
18796;SDS011;9526;52.612;13.300;2023-06-10T05:01:43;6.97;;;2.92;;
18796;SDS011;9526;52.612;13.300;2023-06-10T05:04:08;8.98;;;3.40;;
18796;SDS011;9526;52.612;13.300;2023-06-10T05:06:32;5.07;;;2.85;;
18796;SDS011;9526;52.612;13.300;2023-06-10T05:08:57;6.88;;;3.17;;
18796;SDS011;9526;52.612;13.300;2023-06-10T05:11:21;6.85;;;2.80;;
18796;SDS011;9526;52.612;13.300;2023-06-10T05:13:45;5.63;;;3.40;;
18796;SDS011;9526;52.612;13.300;2023-06-10T05:16:08;5.00;;;3.05;;
18796;SDS011;9526;52.612;13.300;2023-06-10T05:18:32;9.43;;;3.40;;
18796;SDS011;9526;52.612;13.300;2023-06-10T05:20:58;6.68;;;3.03;;
18796;SDS011;9526;52.612;13.300;2023-06-10T05:23:22;4.72;;;3.10;;
18796;SDS011;9526;52.612;13.300;2023-06-10T05:25:46;5.60;;;2.95;;
18796;SDS011;9526;52.612;13.300;2023-06-10T05:28:09;3.65;;;2.60;;
18796;SDS011;9526;52.612;13.300;2023-06-10T05:30:36;6.20;;;3.17;;
18796;SDS011;9526;52.612;13.300;2023-06-10T05:33:00;7.65;;;3.22;;
18796;SDS011;9526;52.612;13.300;2023-06-10T05:35:23;4.50;;;2.78;;
18796;SDS011;9526;52.612;13.300;2023-06-10T05:37:49;5.60;;;3.30;;
18796;SDS011;9526;52.612;13.300;2023-06-10T05:40:12;8.65;;;3.90;;
18796;SDS011;9526;52.612;13.300;2023-06-10T05:42:36;10.00;;;3.15;;
18796;SDS011;9526;52.612;13.300;2023-06-10T05:45:00;8.52;;;3.65;;
18796;SDS011;9526;52.612;13.300;2023-06-10T05:47:23;5.00;;;2.80;;
18796;SDS011;9526;52.612;13.300;2023-06-10T05:49:47;6.22;;;3.92;;
18796;SDS011;9526;52.612;13.300;2023-06-10T05:52:13;5.43;;;3.25;;
18796;SDS011;9526;52.612;13.300;2023-06-10T05:54:38;5.88;;;3.35;;
18796;SDS011;9526;52.612;13.300;2023-06-10T05:57:02;5.90;;;3.28;;
18796;SDS011;9526;52.612;13.300;2023-06-10T05:59:27;7.68;;;3.40;;
18796;SDS011;9526;52.612;13.300;2023-06-10T06:01:50;5.68;;;3.47;;
18796;SDS011;9526;52.612;13.300;2023-06-10T06:04:14;6.20;;;3.70;;
18796;SDS011;9526;52.612;13.300;2023-06-10T06:06:38;8.02;;;3.58;;
18796;SDS011;9526;52.612;13.300;2023-06-10T06:09:03;6.25;;;3.63;;
18796;SDS011;9526;52.612;13.300;2023-06-10T06:11:28;6.18;;;3.53;;
18796;SDS011;9526;52.612;13.300;2023-06-10T06:13:52;6.20;;;3.63;;
18796;SDS011;9526;52.612;13.300;2023-06-10T06:16:15;11.15;;;3.67;;
18796;SDS011;9526;52.612;13.300;2023-06-10T06:18:40;8.63;;;3.83;;
18796;SDS011;9526;52.612;13.300;2023-06-10T06:21:03;6.43;;;2.88;;
18796;SDS011;9526;52.612;13.300;2023-06-10T06:23:27;6.72;;;4.05;;
18796;SDS011;9526;52.612;13.300;2023-06-10T06:25:51;9.35;;;3.10;;
18796;SDS011;9526;52.612;13.300;2023-06-10T06:28:17;8.02;;;3.38;;
18796;SDS011;9526;52.612;13.300;2023-06-10T06:30:42;5.60;;;3.53;;
18796;SDS011;9526;52.612;13.300;2023-06-10T06:33:06;4.82;;;3.47;;
18796;SDS011;9526;52.612;13.300;2023-06-10T06:35:30;5.22;;;3.70;;
18796;SDS011;9526;52.612;13.300;2023-06-10T06:37:55;6.03;;;3.33;;
18796;SDS011;9526;52.612;13.300;2023-06-10T06:40:22;6.10;;;3.92;;
18796;SDS011;9526;52.612;13.300;2023-06-10T06:42:46;4.55;;;3.38;;
18796;SDS011;9526;52.612;13.300;2023-06-10T06:45:31;6.00;;;3.67;;
18796;SDS011;9526;52.612;13.300;2023-06-10T06:47:56;5.70;;;3.17;;
18796;SDS011;9526;52.612;13.300;2023-06-10T06:50:19;6.35;;;4.18;;
18796;SDS011;9526;52.612;13.300;2023-06-10T06:52:43;5.07;;;3.75;;
18796;SDS011;9526;52.612;13.300;2023-06-10T06:55:07;4.97;;;3.35;;
18796;SDS011;9526;52.612;13.300;2023-06-10T06:57:32;5.18;;;3.75;;
18796;SDS011;9526;52.612;13.300;2023-06-10T06:59:56;5.85;;;4.07;;
18796;SDS011;9526;52.612;13.300;2023-06-10T07:02:21;5.88;;;3.67;;
18796;SDS011;9526;52.612;13.300;2023-06-10T07:04:44;6.72;;;3.30;;
18796;SDS011;9526;52.612;13.300;2023-06-10T07:07:10;5.47;;;3.75;;
18796;SDS011;9526;52.612;13.300;2023-06-10T07:09:34;5.55;;;3.80;;
18796;SDS011;9526;52.612;13.300;2023-06-10T07:11:58;7.43;;;3.88;;
18796;SDS011;9526;52.612;13.300;2023-06-10T07:14:22;7.97;;;3.72;;
18796;SDS011;9526;52.612;13.300;2023-06-10T07:16:46;6.07;;;4.10;;
18796;SDS011;9526;52.612;13.300;2023-06-10T07:19:11;6.07;;;3.67;;
18796;SDS011;9526;52.612;13.300;2023-06-10T07:21:35;6.80;;;4.15;;
18796;SDS011;9526;52.612;13.300;2023-06-10T07:23:59;5.50;;;3.92;;
18796;SDS011;9526;52.612;13.300;2023-06-10T07:26:23;5.28;;;4.00;;
18796;SDS011;9526;52.612;13.300;2023-06-10T07:28:47;7.25;;;3.70;;
18796;SDS011;9526;52.612;13.300;2023-06-10T07:31:11;6.03;;;4.18;;
18796;SDS011;9526;52.612;13.300;2023-06-10T07:33:34;7.13;;;4.22;;
18796;SDS011;9526;52.612;13.300;2023-06-10T07:36:02;6.85;;;4.13;;
18796;SDS011;9526;52.612;13.300;2023-06-10T07:38:26;6.32;;;4.05;;
18796;SDS011;9526;52.612;13.300;2023-06-10T07:40:49;8.57;;;4.38;;
18796;SDS011;9526;52.612;13.300;2023-06-10T07:43:13;6.13;;;3.85;;
18796;SDS011;9526;52.612;13.300;2023-06-10T07:45:39;6.20;;;3.92;;
18796;SDS011;9526;52.612;13.300;2023-06-10T07:48:03;5.80;;;4.15;;
18796;SDS011;9526;52.612;13.300;2023-06-10T07:50:27;5.38;;;3.95;;
18796;SDS011;9526;52.612;13.300;2023-06-10T07:52:52;5.43;;;3.72;;
18796;SDS011;9526;52.612;13.300;2023-06-10T07:55:16;5.32;;;3.92;;
18796;SDS011;9526;52.612;13.300;2023-06-10T07:57:39;8.32;;;4.20;;
18796;SDS011;9526;52.612;13.300;2023-06-10T08:00:03;5.90;;;4.10;;
18796;SDS011;9526;52.612;13.300;2023-06-10T08:02:35;7.88;;;4.10;;
18796;SDS011;9526;52.612;13.300;2023-06-10T08:04:59;5.47;;;3.70;;
18796;SDS011;9526;52.612;13.300;2023-06-10T08:07:23;4.93;;;3.58;;
18796;SDS011;9526;52.612;13.300;2023-06-10T08:09:48;8.27;;;4.40;;
18796;SDS011;9526;52.612;13.300;2023-06-10T08:12:12;5.45;;;3.90;;
18796;SDS011;9526;52.612;13.300;2023-06-10T08:14:38;6.40;;;4.30;;
18796;SDS011;9526;52.612;13.300;2023-06-10T08:17:01;5.63;;;4.25;;
18796;SDS011;9526;52.612;13.300;2023-06-10T08:19:27;5.78;;;4.10;;
18796;SDS011;9526;52.612;13.300;2023-06-10T08:21:52;6.45;;;4.32;;
18796;SDS011;9526;52.612;13.300;2023-06-10T08:24:15;5.32;;;3.65;;
18796;SDS011;9526;52.612;13.300;2023-06-10T08:26:41;6.60;;;4.47;;
18796;SDS011;9526;52.612;13.300;2023-06-10T08:29:05;6.78;;;4.07;;
18796;SDS011;9526;52.612;13.300;2023-06-10T08:31:29;8.45;;;4.07;;
18796;SDS011;9526;52.612;13.300;2023-06-10T08:33:52;8.52;;;4.32;;
18796;SDS011;9526;52.612;13.300;2023-06-10T08:36:16;5.90;;;3.97;;
18796;SDS011;9526;52.612;13.300;2023-06-10T08:38:40;6.47;;;4.10;;
18796;SDS011;9526;52.612;13.300;2023-06-10T08:41:04;6.03;;;4.00;;
18796;SDS011;9526;52.612;13.300;2023-06-10T08:43:31;5.55;;;3.90;;
18796;SDS011;9526;52.612;13.300;2023-06-10T08:46:00;6.55;;;4.03;;
18796;SDS011;9526;52.612;13.300;2023-06-10T08:48:24;5.57;;;4.15;;
18796;SDS011;9526;52.612;13.300;2023-06-10T08:50:50;6.65;;;3.95;;
18796;SDS011;9526;52.612;13.300;2023-06-10T08:53:16;6.70;;;4.13;;
18796;SDS011;9526;52.612;13.300;2023-06-10T08:55:42;7.47;;;4.15;;
18796;SDS011;9526;52.612;13.300;2023-06-10T08:58:08;6.18;;;4.30;;
18796;SDS011;9526;52.612;13.300;2023-06-10T09:00:34;5.88;;;3.92;;
18796;SDS011;9526;52.612;13.300;2023-06-10T09:02:59;5.43;;;3.97;;
18796;SDS011;9526;52.612;13.300;2023-06-10T09:05:26;5.43;;;4.05;;
18796;SDS011;9526;52.612;13.300;2023-06-10T09:07:51;6.35;;;4.25;;
18796;SDS011;9526;52.612;13.300;2023-06-10T09:10:15;10.07;;;4.20;;
18796;SDS011;9526;52.612;13.300;2023-06-10T09:12:39;7.47;;;4.20;;
18796;SDS011;9526;52.612;13.300;2023-06-10T09:15:03;6.70;;;3.85;;
18796;SDS011;9526;52.612;13.300;2023-06-10T09:17:29;8.07;;;4.40;;
18796;SDS011;9526;52.612;13.300;2023-06-10T09:19:54;6.93;;;4.03;;
18796;SDS011;9526;52.612;13.300;2023-06-10T09:22:18;6.30;;;4.32;;
18796;SDS011;9526;52.612;13.300;2023-06-10T09:24:42;6.65;;;4.18;;
18796;SDS011;9526;52.612;13.300;2023-06-10T09:27:06;6.25;;;3.97;;
18796;SDS011;9526;52.612;13.300;2023-06-10T09:29:31;6.13;;;4.32;;
18796;SDS011;9526;52.612;13.300;2023-06-10T09:31:56;7.82;;;4.85;;
18796;SDS011;9526;52.612;13.300;2023-06-10T09:34:24;9.15;;;5.13;;
18796;SDS011;9526;52.612;13.300;2023-06-10T09:36:48;6.22;;;4.00;;
18796;SDS011;9526;52.612;13.300;2023-06-10T09:39:15;4.75;;;3.72;;
18796;SDS011;9526;52.612;13.300;2023-06-10T09:41:40;9.48;;;4.30;;
18796;SDS011;9526;52.612;13.300;2023-06-10T09:44:07;6.10;;;4.35;;
18796;SDS011;9526;52.612;13.300;2023-06-10T09:46:35;10.55;;;4.60;;
18796;SDS011;9526;52.612;13.300;2023-06-10T09:49:00;8.43;;;3.83;;
18796;SDS011;9526;52.612;13.300;2023-06-10T09:51:25;6.53;;;4.28;;
18796;SDS011;9526;52.612;13.300;2023-06-10T09:53:49;6.00;;;4.15;;
18796;SDS011;9526;52.612;13.300;2023-06-10T09:56:14;7.10;;;4.05;;
18796;SDS011;9526;52.612;13.300;2023-06-10T09:58:38;5.68;;;3.90;;
18796;SDS011;9526;52.612;13.300;2023-06-10T10:01:05;5.47;;;3.70;;
18796;SDS011;9526;52.612;13.300;2023-06-10T10:03:29;8.15;;;3.78;;
18796;SDS011;9526;52.612;13.300;2023-06-10T10:05:57;5.75;;;3.72;;
18796;SDS011;9526;52.612;13.300;2023-06-10T10:08:23;8.70;;;3.95;;
18796;SDS011;9526;52.612;13.300;2023-06-10T10:10:47;5.72;;;4.10;;
18796;SDS011;9526;52.612;13.300;2023-06-10T10:13:11;4.93;;;3.53;;
18796;SDS011;9526;52.612;13.300;2023-06-10T10:15:35;5.60;;;4.05;;
18796;SDS011;9526;52.612;13.300;2023-06-10T10:18:04;5.35;;;4.07;;
18796;SDS011;9526;52.612;13.300;2023-06-10T10:20:33;5.25;;;3.97;;
18796;SDS011;9526;52.612;13.300;2023-06-10T10:22:59;6.50;;;3.92;;
18796;SDS011;9526;52.612;13.300;2023-06-10T10:25:29;6.47;;;4.40;;
18796;SDS011;9526;52.612;13.300;2023-06-10T10:28:02;6.75;;;3.90;;
18796;SDS011;9526;52.612;13.300;2023-06-10T10:30:33;6.72;;;4.55;;
18796;SDS011;9526;52.612;13.300;2023-06-10T10:33:04;5.97;;;4.15;;
18796;SDS011;9526;52.612;13.300;2023-06-10T10:35:32;6.13;;;3.80;;
18796;SDS011;9526;52.612;13.300;2023-06-10T10:37:56;7.18;;;4.45;;
18796;SDS011;9526;52.612;13.300;2023-06-10T10:40:21;5.47;;;4.03;;
18796;SDS011;9526;52.612;13.300;2023-06-10T10:42:48;7.07;;;4.35;;
18796;SDS011;9526;52.612;13.300;2023-06-10T10:45:12;5.97;;;4.28;;
18796;SDS011;9526;52.612;13.300;2023-06-10T10:47:36;6.22;;;4.40;;
18796;SDS011;9526;52.612;13.300;2023-06-10T10:50:01;5.32;;;3.75;;
18796;SDS011;9526;52.612;13.300;2023-06-10T10:52:46;6.07;;;3.72;;
18796;SDS011;9526;52.612;13.300;2023-06-10T10:55:17;5.80;;;3.90;;
18796;SDS011;9526;52.612;13.300;2023-06-10T10:57:41;5.72;;;4.03;;
18796;SDS011;9526;52.612;13.300;2023-06-10T11:00:07;6.97;;;3.63;;
18796;SDS011;9526;52.612;13.300;2023-06-10T11:02:34;5.78;;;3.70;;
18796;SDS011;9526;52.612;13.300;2023-06-10T11:05:05;6.25;;;3.53;;
18796;SDS011;9526;52.612;13.300;2023-06-10T11:07:31;5.38;;;3.33;;
18796;SDS011;9526;52.612;13.300;2023-06-10T11:09:58;6.05;;;3.63;;
18796;SDS011;9526;52.612;13.300;2023-06-10T11:12:23;6.25;;;3.83;;
18796;SDS011;9526;52.612;13.300;2023-06-10T11:14:50;4.90;;;3.60;;
18796;SDS011;9526;52.612;13.300;2023-06-10T11:17:19;4.35;;;3.40;;
18796;SDS011;9526;52.612;13.300;2023-06-10T11:19:43;5.03;;;3.47;;
18796;SDS011;9526;52.612;13.300;2023-06-10T11:22:08;5.70;;;3.95;;
18796;SDS011;9526;52.612;13.300;2023-06-10T11:24:39;5.18;;;3.65;;
18796;SDS011;9526;52.612;13.300;2023-06-10T11:27:15;5.90;;;3.90;;
18796;SDS011;9526;52.612;13.300;2023-06-10T11:29:54;5.93;;;3.40;;
18796;SDS011;9526;52.612;13.300;2023-06-10T11:32:20;7.15;;;3.78;;
18796;SDS011;9526;52.612;13.300;2023-06-10T11:34:45;5.18;;;3.20;;
18796;SDS011;9526;52.612;13.300;2023-06-10T11:37:15;4.47;;;3.25;;
18796;SDS011;9526;52.612;13.300;2023-06-10T11:39:39;6.45;;;3.28;;
18796;SDS011;9526;52.612;13.300;2023-06-10T11:42:03;5.45;;;4.00;;
18796;SDS011;9526;52.612;13.300;2023-06-10T11:44:28;5.10;;;3.88;;
18796;SDS011;9526;52.612;13.300;2023-06-10T11:46:56;6.68;;;3.75;;
18796;SDS011;9526;52.612;13.300;2023-06-10T11:49:21;6.68;;;4.00;;
18796;SDS011;9526;52.612;13.300;2023-06-10T11:51:45;6.30;;;4.07;;
18796;SDS011;9526;52.612;13.300;2023-06-10T11:54:13;5.75;;;3.88;;
18796;SDS011;9526;52.612;13.300;2023-06-10T11:56:37;6.20;;;4.05;;
18796;SDS011;9526;52.612;13.300;2023-06-10T11:59:02;5.90;;;4.10;;
18796;SDS011;9526;52.612;13.300;2023-06-10T12:01:29;5.28;;;3.70;;
18796;SDS011;9526;52.612;13.300;2023-06-10T12:03:58;4.68;;;3.65;;
18796;SDS011;9526;52.612;13.300;2023-06-10T12:06:25;6.80;;;4.28;;
18796;SDS011;9526;52.612;13.300;2023-06-10T12:08:49;4.90;;;3.75;;
18796;SDS011;9526;52.612;13.300;2023-06-10T12:11:12;7.43;;;4.43;;
18796;SDS011;9526;52.612;13.300;2023-06-10T12:13:36;5.28;;;4.45;;
18796;SDS011;9526;52.612;13.300;2023-06-10T12:16:10;5.32;;;4.00;;
18796;SDS011;9526;52.612;13.300;2023-06-10T12:18:34;9.27;;;4.20;;
18796;SDS011;9526;52.612;13.300;2023-06-10T12:20:58;5.57;;;4.30;;
18796;SDS011;9526;52.612;13.300;2023-06-10T12:23:23;7.38;;;4.22;;
18796;SDS011;9526;52.612;13.300;2023-06-10T12:25:50;6.43;;;4.38;;
18796;SDS011;9526;52.612;13.300;2023-06-10T12:28:14;6.10;;;4.55;;
18796;SDS011;9526;52.612;13.300;2023-06-10T12:30:39;6.65;;;4.13;;
18796;SDS011;9526;52.612;13.300;2023-06-10T12:33:02;5.88;;;3.90;;
18796;SDS011;9526;52.612;13.300;2023-06-10T12:35:27;7.03;;;3.95;;
18796;SDS011;9526;52.612;13.300;2023-06-10T12:37:54;5.88;;;3.22;;
18796;SDS011;9526;52.612;13.300;2023-06-10T12:40:26;5.35;;;3.97;;
18796;SDS011;9526;52.612;13.300;2023-06-10T12:42:51;5.30;;;3.85;;
18796;SDS011;9526;52.612;13.300;2023-06-10T12:45:15;3.97;;;3.30;;
18796;SDS011;9526;52.612;13.300;2023-06-10T12:47:51;5.18;;;3.70;;
18796;SDS011;9526;52.612;13.300;2023-06-10T12:50:15;5.22;;;3.92;;
18796;SDS011;9526;52.612;13.300;2023-06-10T12:52:38;7.22;;;4.40;;
18796;SDS011;9526;52.612;13.300;2023-06-10T12:55:04;5.78;;;4.30;;
18796;SDS011;9526;52.612;13.300;2023-06-10T12:57:30;4.50;;;3.55;;
18796;SDS011;9526;52.612;13.300;2023-06-10T12:59:54;6.53;;;4.63;;
18796;SDS011;9526;52.612;13.300;2023-06-10T13:02:24;7.95;;;4.32;;
18796;SDS011;9526;52.612;13.300;2023-06-10T13:04:48;5.90;;;4.60;;
18796;SDS011;9526;52.612;13.300;2023-06-10T13:07:12;4.68;;;3.58;;
18796;SDS011;9526;52.612;13.300;2023-06-10T13:09:36;5.88;;;4.05;;
18796;SDS011;9526;52.612;13.300;2023-06-10T13:12:00;7.45;;;5.38;;
18796;SDS011;9526;52.612;13.300;2023-06-10T13:14:25;5.97;;;4.75;;
18796;SDS011;9526;52.612;13.300;2023-06-10T13:16:50;6.60;;;5.30;;
18796;SDS011;9526;52.612;13.300;2023-06-10T13:19:16;6.53;;;5.13;;
18796;SDS011;9526;52.612;13.300;2023-06-10T13:21:40;8.18;;;5.05;;
18796;SDS011;9526;52.612;13.300;2023-06-10T13:24:04;6.30;;;5.15;;
18796;SDS011;9526;52.612;13.300;2023-06-10T13:26:28;8.38;;;5.13;;
18796;SDS011;9526;52.612;13.300;2023-06-10T13:28:52;9.45;;;5.20;;
18796;SDS011;9526;52.612;13.300;2023-06-10T13:31:17;7.63;;;5.20;;
18796;SDS011;9526;52.612;13.300;2023-06-10T13:33:42;6.43;;;4.70;;
18796;SDS011;9526;52.612;13.300;2023-06-10T13:36:06;5.45;;;4.50;;
18796;SDS011;9526;52.612;13.300;2023-06-10T13:38:30;7.50;;;4.47;;
18796;SDS011;9526;52.612;13.300;2023-06-10T13:40:53;6.15;;;4.47;;
18796;SDS011;9526;52.612;13.300;2023-06-10T13:43:17;6.10;;;4.68;;
18796;SDS011;9526;52.612;13.300;2023-06-10T13:45:41;5.20;;;3.78;;
18796;SDS011;9526;52.612;13.300;2023-06-10T13:48:06;6.00;;;4.50;;
18796;SDS011;9526;52.612;13.300;2023-06-10T13:50:30;5.32;;;4.38;;
18796;SDS011;9526;52.612;13.300;2023-06-10T13:52:54;7.65;;;4.53;;
18796;SDS011;9526;52.612;13.300;2023-06-10T13:55:18;5.57;;;4.50;;
18796;SDS011;9526;52.612;13.300;2023-06-10T13:57:42;7.20;;;4.85;;
18796;SDS011;9526;52.612;13.300;2023-06-10T14:00:06;4.93;;;4.03;;
18796;SDS011;9526;52.612;13.300;2023-06-10T14:02:32;7.07;;;4.10;;
18796;SDS011;9526;52.612;13.300;2023-06-10T14:04:57;4.90;;;4.28;;
18796;SDS011;9526;52.612;13.300;2023-06-10T14:07:21;5.80;;;4.55;;
18796;SDS011;9526;52.612;13.300;2023-06-10T14:09:45;5.97;;;4.32;;
18796;SDS011;9526;52.612;13.300;2023-06-10T14:12:09;5.65;;;4.13;;
18796;SDS011;9526;52.612;13.300;2023-06-10T14:14:34;5.40;;;4.00;;
18796;SDS011;9526;52.612;13.300;2023-06-10T14:16:58;5.35;;;4.00;;
18796;SDS011;9526;52.612;13.300;2023-06-10T14:19:22;6.43;;;3.63;;
18796;SDS011;9526;52.612;13.300;2023-06-10T14:21:47;3.72;;;3.30;;
18796;SDS011;9526;52.612;13.300;2023-06-10T14:24:11;3.97;;;3.50;;
18796;SDS011;9526;52.612;13.300;2023-06-10T14:26:35;4.20;;;2.80;;
18796;SDS011;9526;52.612;13.300;2023-06-10T14:28:59;3.55;;;3.15;;
18796;SDS011;9526;52.612;13.300;2023-06-10T14:31:24;4.15;;;3.40;;
18796;SDS011;9526;52.612;13.300;2023-06-10T14:33:48;4.68;;;3.53;;
18796;SDS011;9526;52.612;13.300;2023-06-10T14:36:11;4.22;;;3.75;;